Louis Armstrong New Orleans International Airport
KMSY : now visible

Airfield :











YOU CAN JOIN US ON...

 
LOGIN :

Register | Disclaimer

   EN    FR    IT 

 









Legend :    VFR   Marginal VFR   IFR   Intensive IFR   Very Intensive IFR
Visi :
Ceiling :
>= 8 km
>= 3000ft
5 to 8 km
1000 to 3000 ft
1500m to 5 km
500 to 1000 ft
800 to 1500m
200 to 500 ft
< 800m
< 200 ft
Symbols :   Thunderstorms  Fog  Heavy snow  Heavy precipitations  Wind > 20 kt







- Airport Elevation : 4 ft
- IATA code : MSY


KMSY - Louis Armstrong New Orleans International

CURRENT METAR :
  • 210453Z 15008KT 10SM FEW019 26/23 A2988 RMK AO2 SLP122 T02610233

EXPIRED METARs :
  • 210353Z 14007KT 10SM SCT019 27/23 A2989 RMK AO2 SLP125 T02670233
  • 210253Z 15009KT 10SM FEW014 SCT022 27/23 A2990 RMK AO2 SLP129 T02720233 58003

TAF KMSY
Valid from the 21 at 00:00 until the 22 at 06:00 UTC


202320Z 2100/2206 16009KT P6SM SCT025
FM211400 15008KT P6SM SCT025 SCT050
FM211500 16014KT P6SM FEW025
FM212100 18017KT P6SM FEW025
KZHU FIR / North America



MET'MAP, your aeronautical weather chart ! - Copyright ORBIFLY December 2007 - Disclaimer

ORBIFLY MET'MAP TEAM :

Programming & Development : Alexandra Zaïnal
Concept & Development : Baudouin d'Aumeries
Co-Development & Prog : Marc-Olivier Méhu
Technical & hardware support : Manuel Goepfert

Contact : metmap@orbifly.com




SOURCES & CREDITS :

   NOAA       Earth
Advisory